Kaneohe Bay MCAS (Marion E. Carl Field) Airport Kaneohe US
ICAO: PHNG
IATA:
Category: Medium
Scheduled Services:

Elevation: 24 ft
TransAlt. 18000 ft.

Airport Communications:
APP/DEP:125
ATIS:28.45
CLNC DEL:29.47
CTAF:120.7
GND:38.28
PMSV METRO:34.46
PTD:30.72
TWR:120.7

PHNG Zoom In..

Runways:

(A) RW 04 length 7771 ft width 200 ft
---- / hdg 41

(B) RW 22 length 7771 ft width 200 ft
---- / hdg 221

Location; PHNG
Day. 21 / Time. 23.57 Zulu
* Altimeter: 29.96
* Temperature: 26° c. 78.8°f.
* Wind from: 060° Speed 09 kn with Gusts up to 16 kn.
Dewpoint: 21° c.
Visibility: 10 Statute Miles.
Clouds: Few 2000 ft.

PHNG 212357Z AUTO 06009G16KT 10SM FEW020 26/21 A2996 RMK AO2 SLP138 60000 T02560211 10256 20239 56018 $


Wind From 060°
Speed 09 kn.

jpsM music video
CHECK IT OUT

jpsM - It Moves..

 
jpsmedia.com for Web Design  worldairports.se 2018   terms of use